createdAt,value
2018-11-04T16:05:51.765Z,33.27
2018-11-04T16:08:20.662Z,34.80
2018-11-04T16:10:49.671Z,38.67
2018-11-04T16:13:18.211Z,32.93
2018-11-04T16:15:47.063Z,31.53
2018-11-04T16:18:15.947Z,33.60
2018-11-04T16:20:44.227Z,33.77
2018-11-04T16:23:12.808Z,33.70
2018-11-04T16:25:41.294Z,35.30
2018-11-04T16:28:09.713Z,34.90
2018-11-04T16:30:38.540Z,32.80
2018-11-04T16:33:07.071Z,34.20
2018-11-04T16:35:36.135Z,35.47
2018-11-04T16:38:05.225Z,37.83
2018-11-04T16:40:33.815Z,48.73
2018-11-04T16:43:02.587Z,44.73
2018-11-04T16:45:30.963Z,44.33
2018-11-04T16:47:59.636Z,42.23
2018-11-04T16:50:28.314Z,47.37
2018-11-04T16:52:56.735Z,56.73
2018-11-04T16:55:25.147Z,56.87
2018-11-04T16:57:53.575Z,58.80
2018-11-04T17:00:30.247Z,88.53
2018-11-04T17:02:59.363Z,56.73
2018-11-04T17:05:28.236Z,53.73
2018-11-04T17:07:57.518Z,53.27
2018-11-04T17:10:26.131Z,50.67
2018-11-04T17:12:54.663Z,51.23
2018-11-04T17:15:23.340Z,54.83
2018-11-04T17:17:51.950Z,52.27
2018-11-04T17:20:20.594Z,52.17
2018-11-04T17:22:49.893Z,50.27
2018-11-04T17:25:18.888Z,56.17
2018-11-04T17:27:47.488Z,53.20
2018-11-04T17:30:18.510Z,51.00
2018-11-04T17:32:47.574Z,54.20
2018-11-04T17:35:16.943Z,52.60
2018-11-04T17:37:46.676Z,51.83
2018-11-04T17:40:16.338Z,55.07
2018-11-04T17:42:45.194Z,52.03
2018-11-04T17:45:15.620Z,49.60
2018-11-04T17:47:44.921Z,49.27
2018-11-04T17:50:15.516Z,52.07
2018-11-04T17:52:44.959Z,51.03
2018-11-04T17:55:13.403Z,42.77
2018-11-04T17:57:42.212Z,40.23
2018-11-04T18:00:11.376Z,42.83
2018-11-04T18:02:40.834Z,38.27
2018-11-04T18:05:10.478Z,43.20
2018-11-04T18:07:39.131Z,38.97
2018-11-04T18:10:08.417Z,38.83
2018-11-04T18:12:36.818Z,38.70
2018-11-04T18:15:06.114Z,38.03
2018-11-04T18:17:34.510Z,37.53
2018-11-04T18:20:03.490Z,37.83
2018-11-04T18:22:32.141Z,38.40
2018-11-04T18:25:00.911Z,37.97
2018-11-04T18:27:29.379Z,40.57
2018-11-04T18:29:57.867Z,37.07
2018-11-04T18:32:26.367Z,38.97
2018-11-04T18:34:54.871Z,38.40
2018-11-04T18:37:23.713Z,40.40
2018-11-04T18:39:52.697Z,40.73
2018-11-04T18:42:21.246Z,39.93
2018-11-04T18:44:49.807Z,45.23
2018-11-04T18:47:18.704Z,42.00
2018-11-04T18:49:48.406Z,45.00
2018-11-04T18:52:16.967Z,46.07
2018-11-04T18:54:45.742Z,48.83
2018-11-04T18:57:14.206Z,50.83
2018-11-04T18:59:42.649Z,46.20
2018-11-04T19:02:11.158Z,49.40
2018-11-04T19:04:39.808Z,44.87
2018-11-04T19:07:08.864Z,44.47
2018-11-04T19:09:37.442Z,52.87
2018-11-04T19:12:06.237Z,50.33
2018-11-04T19:14:34.974Z,59.60
2018-11-04T19:17:03.697Z,54.50
2018-11-04T19:19:33.403Z,55.70
2018-11-04T19:22:02.452Z,56.07
2018-11-04T19:24:31.061Z,54.27
2018-11-04T19:26:59.841Z,53.63
2018-11-04T19:29:28.445Z,54.47
2018-11-04T19:31:56.918Z,53.10
2018-11-04T19:34:25.293Z,54.80
2018-11-04T19:36:53.685Z,55.70
2018-11-04T19:39:22.139Z,58.07
2018-11-04T19:41:50.783Z,56.77
2018-11-04T19:44:20.296Z,55.03
2018-11-04T19:46:49.619Z,61.77
2018-11-04T19:49:18.618Z,66.40
2018-11-04T19:51:47.588Z,62.93
2018-11-04T19:54:16.006Z,55.57
2018-11-04T19:56:44.539Z,60.33
2018-11-04T19:59:13.017Z,54.90
2018-11-04T20:01:41.998Z,61.83
2018-11-04T20:04:10.400Z,61.93
2018-11-04T20:06:38.831Z,56.43
2018-11-04T20:09:14.819Z,55.67
2018-11-04T20:11:44.444Z,64.97
2018-11-04T20:14:23.091Z,66.57
2018-11-04T20:16:52.889Z,66.57
2018-11-04T20:19:26.722Z,77.17
2018-11-04T20:21:55.893Z,89.93
2018-11-04T20:24:29.583Z,82.47
2018-11-04T20:26:58.064Z,81.30
2018-11-04T20:29:26.713Z,83.83
2018-11-04T20:32:00.454Z,83.07
2018-11-04T20:34:29.060Z,96.47
2018-11-04T20:36:58.203Z,80.83
2018-11-04T20:39:31.921Z,80.30
2018-11-04T20:42:00.425Z,79.57
2018-11-04T20:44:29.345Z,89.77
2018-11-04T20:46:59.077Z,84.47
2018-11-04T20:49:33.769Z,96.00
2018-11-04T20:52:03.081Z,102.40
2018-11-04T20:54:31.430Z,102.60
2018-11-04T20:57:05.296Z,106.80
2018-11-04T20:59:34.013Z,112.13
2018-11-04T21:02:02.762Z,99.43
2018-11-04T21:04:31.560Z,88.87
2018-11-04T21:07:00.017Z,89.20
2018-11-04T21:09:28.474Z,88.77
2018-11-04T21:11:57.115Z,81.27
2018-11-04T21:14:25.865Z,85.43
2018-11-04T21:16:54.287Z,87.53
2018-11-04T21:19:23.178Z,81.53
2018-11-04T21:21:51.746Z,75.23
2018-11-04T21:24:20.350Z,71.00
2018-11-04T21:26:48.951Z,70.87
2018-11-04T21:29:17.920Z,62.77
2018-11-04T21:31:46.769Z,60.40
2018-11-04T21:34:15.214Z,55.20
2018-11-04T21:36:45.981Z,51.73
2018-11-04T21:39:14.529Z,49.63
2018-11-04T21:41:43.164Z,50.47
2018-11-04T21:44:12.068Z,48.17
2018-11-04T21:46:40.526Z,46.20
2018-11-04T21:49:08.953Z,41.63
